createdAt,value
2017-05-10T00:02:11.652Z,76.10
2017-05-10T00:04:39.933Z,75.97
2017-05-10T00:07:07.043Z,76.33
2017-05-10T00:09:34.021Z,76.33
2017-05-10T00:12:01.018Z,76.19
2017-05-10T00:14:27.998Z,76.30
2017-05-10T00:16:54.990Z,76.57
2017-05-10T00:19:21.953Z,76.38
2017-05-10T00:21:48.923Z,76.65
2017-05-10T00:24:15.930Z,76.76
2017-05-10T00:26:42.919Z,76.90
2017-05-10T00:29:09.987Z,76.99
2017-05-10T00:31:36.961Z,77.00
2017-05-10T00:34:03.958Z,77.16
2017-05-10T00:36:30.945Z,77.23
2017-05-10T00:38:57.925Z,77.00
2017-05-10T00:41:24.949Z,77.26
2017-05-10T00:43:51.954Z,77.44
2017-05-10T00:46:18.918Z,77.25
2017-05-10T00:48:45.893Z,77.37
2017-05-10T00:51:12.849Z,77.41
2017-05-10T00:53:39.829Z,77.45
2017-05-10T00:56:06.804Z,77.25
2017-05-10T00:58:33.841Z,77.50
2017-05-10T01:01:00.849Z,77.43
2017-05-10T01:03:27.823Z,77.61
2017-05-10T01:05:54.805Z,77.61
2017-05-10T01:08:21.788Z,77.50
2017-05-10T01:10:49.163Z,77.61
2017-05-10T01:13:16.151Z,77.85
2017-05-10T01:15:43.150Z,78.03
2017-05-10T01:18:10.142Z,77.78
2017-05-10T01:20:39.052Z,78.02
2017-05-10T01:23:06.036Z,77.95
2017-05-10T01:25:33.065Z,78.05
2017-05-10T01:28:00.022Z,77.65
2017-05-10T01:30:27.005Z,78.09
2017-05-10T01:32:53.988Z,77.98
2017-05-10T01:35:20.965Z,77.98
2017-05-10T01:37:47.950Z,77.97
2017-05-10T01:40:14.908Z,78.15
2017-05-10T01:42:41.902Z,78.43
2017-05-10T01:45:08.898Z,78.41
2017-05-10T01:47:35.855Z,77.87
2017-05-10T01:50:02.956Z,78.40
2017-05-10T01:52:30.578Z,78.50
2017-05-10T01:54:58.170Z,78.10
2017-05-10T01:59:58.546Z,78.26
2017-05-10T02:02:25.549Z,78.57
2017-05-10T02:04:52.509Z,78.24
2017-05-10T02:07:19.507Z,78.60
2017-05-10T02:09:46.458Z,78.47
2017-05-10T02:12:14.017Z,78.44
2017-05-10T02:14:40.978Z,78.74
2017-05-10T02:17:07.935Z,78.51
2017-05-10T02:19:34.937Z,78.68
2017-05-10T02:22:01.894Z,78.56
2017-05-10T02:24:28.870Z,78.93
2017-05-10T02:26:55.825Z,78.74
2017-05-10T02:29:22.789Z,78.60
2017-05-10T02:31:49.760Z,78.94
2017-05-10T02:34:16.733Z,78.84
2017-05-10T02:36:43.710Z,79.09
2017-05-10T02:39:10.697Z,79.05
2017-05-10T02:41:37.670Z,79.28
2017-05-10T02:44:04.638Z,79.38
2017-05-10T02:46:31.597Z,79.24
2017-05-10T02:48:58.589Z,79.47
2017-05-10T02:51:25.545Z,79.68
2017-05-10T02:53:52.572Z,79.50
2017-05-10T02:56:20.580Z,79.52
2017-05-10T02:58:47.549Z,79.39
2017-05-10T03:01:14.814Z,79.51
2017-05-10T03:03:41.773Z,79.53
2017-05-10T03:06:08.737Z,79.41
2017-05-10T03:08:35.717Z,79.38
2017-05-10T03:11:02.687Z,79.63
2017-05-10T03:13:29.682Z,79.71
2017-05-10T03:15:56.643Z,79.83
2017-05-10T03:18:23.613Z,79.77
2017-05-10T03:20:50.578Z,79.65
2017-05-10T03:23:17.557Z,79.28
2017-05-10T03:25:44.572Z,79.61
2017-05-10T03:28:11.558Z,79.76
2017-05-10T03:30:38.517Z,79.36
2017-05-10T03:33:05.481Z,79.67
2017-05-10T03:35:32.455Z,79.91
2017-05-10T03:37:59.437Z,79.87
2017-05-10T03:40:26.405Z,79.99
2017-05-10T03:42:53.372Z,80.01
2017-05-10T03:45:20.369Z,80.11
2017-05-10T03:47:47.363Z,80.16
2017-05-10T03:50:14.347Z,80.25
2017-05-10T03:52:41.329Z,80.08
2017-05-10T03:55:08.281Z,80.32
2017-05-10T03:57:35.265Z,80.19
2017-05-10T04:00:02.271Z,80.26
2017-05-10T04:02:29.221Z,80.20
2017-05-10T04:04:56.227Z,80.33
2017-05-10T04:07:23.203Z,80.22
2017-05-10T04:09:50.233Z,80.64
2017-05-10T04:12:17.223Z,80.37
2017-05-10T04:14:44.185Z,80.61
2017-05-10T04:17:11.154Z,80.57
2017-05-10T04:19:38.171Z,80.77
2017-05-10T04:22:05.159Z,80.94
2017-05-10T04:24:32.169Z,80.90
2017-05-10T04:26:59.141Z,81.09
2017-05-10T04:29:26.162Z,81.12
2017-05-10T04:31:53.191Z,81.06
2017-05-10T04:34:20.164Z,81.35
2017-05-10T04:36:47.205Z,81.48
2017-05-10T04:39:14.261Z,81.13
2017-05-10T04:41:54.481Z,81.36
2017-05-10T04:44:21.465Z,81.19
2017-05-10T04:46:48.489Z,81.38
2017-05-10T04:49:15.474Z,81.00
2017-05-10T04:51:42.447Z,81.08
2017-05-10T04:54:10.347Z,81.25
2017-05-10T04:56:37.301Z,80.96
2017-05-10T04:59:04.258Z,80.86
2017-05-10T05:01:31.394Z,81.15
2017-05-10T05:03:58.406Z,80.83
2017-05-10T05:06:25.514Z,80.81
2017-05-10T05:08:52.474Z,80.70
2017-05-10T05:11:19.498Z,80.12
2017-05-10T05:13:46.521Z,80.49
2017-05-10T05:16:14.109Z,79.99
2017-05-10T05:18:41.133Z,80.63
2017-05-10T05:21:08.519Z,80.66
2017-05-10T05:23:35.800Z,80.42
2017-05-10T05:26:02.846Z,80.13
2017-05-10T05:28:29.862Z,80.05
2017-05-10T05:30:59.869Z,80.17
2017-05-10T05:33:26.829Z,79.97
2017-05-10T05:35:53.818Z,79.97
2017-05-10T05:38:20.821Z,79.88
2017-05-10T05:40:47.810Z,79.83
2017-05-10T05:43:14.871Z,79.35
2017-05-10T05:45:41.857Z,79.22
2017-05-10T05:48:08.805Z,79.22
2017-05-10T05:50:35.764Z,79.00
2017-05-10T05:53:02.701Z,78.99
2017-05-10T05:55:29.698Z,79.31
2017-05-10T05:57:56.667Z,78.93
2017-05-10T06:00:23.632Z,78.75
2017-05-10T06:02:50.597Z,78.66
2017-05-10T06:05:17.541Z,78.46
2017-05-10T06:07:44.534Z,78.50
2017-05-10T06:10:11.481Z,78.24
2017-05-10T06:12:38.449Z,78.28
2017-05-10T06:15:05.443Z,78.01
2017-05-10T06:17:32.414Z,77.87
2017-05-10T06:20:00.397Z,77.80
2017-05-10T06:22:27.349Z,77.70
2017-05-10T06:24:54.297Z,77.49
2017-05-10T06:27:21.269Z,77.46
2017-05-10T06:29:48.253Z,77.26
2017-05-10T06:32:15.233Z,77.29
2017-05-10T06:34:42.187Z,77.02
2017-05-10T06:37:09.141Z,76.87
2017-05-10T06:39:36.107Z,76.65
2017-05-10T06:42:03.081Z,76.60
2017-05-10T06:44:30.064Z,76.42
2017-05-10T06:46:57.042Z,76.16
2017-05-10T06:49:23.988Z,75.94
2017-05-10T06:51:50.954Z,75.78
2017-05-10T06:54:17.903Z,75.64
2017-05-10T06:56:44.869Z,75.39
2017-05-10T06:59:11.809Z,74.88
2017-05-10T07:01:38.757Z,74.51
2017-05-10T07:04:05.721Z,74.28
2017-05-10T07:06:32.673Z,74.09
2017-05-10T07:08:59.625Z,73.79
2017-05-10T07:11:26.567Z,73.61
2017-05-10T07:13:53.653Z,73.49
2017-05-10T07:16:20.625Z,73.28
2017-05-10T07:18:47.631Z,72.93
2017-05-10T07:21:14.638Z,72.68
2017-05-10T07:23:41.583Z,72.42
2017-05-10T07:26:08.521Z,72.28
2017-05-10T07:28:35.485Z,71.69
2017-05-10T07:31:02.425Z,71.73
2017-05-10T07:33:29.397Z,71.21
2017-05-10T07:35:56.357Z,70.98
2017-05-10T07:38:23.329Z,70.96
2017-05-10T07:40:50.301Z,70.97
2017-05-10T07:43:17.241Z,70.43
2017-05-10T07:45:44.214Z,70.04
2017-05-10T07:48:11.177Z,69.80
2017-05-10T07:50:38.163Z,69.29
2017-05-10T07:53:05.322Z,69.00
2017-05-10T07:55:32.312Z,68.31
2017-05-10T07:57:59.416Z,68.11
2017-05-10T08:00:26.397Z,68.06
2017-05-10T08:02:53.358Z,67.92
2017-05-10T08:05:20.421Z,67.83
2017-05-10T08:07:47.415Z,67.77
2017-05-10T08:10:32.498Z,67.82
2017-05-10T08:12:59.461Z,67.44
2017-05-10T08:15:26.434Z,66.86
2017-05-10T08:17:53.441Z,66.88
2017-05-10T08:20:20.396Z,67.00
2017-05-10T08:22:47.383Z,67.01
2017-05-10T08:25:14.368Z,66.26
2017-05-10T08:27:41.332Z,66.44
2017-05-10T08:30:08.313Z,66.17
2017-05-10T08:32:35.286Z,66.04
2017-05-10T08:35:02.266Z,65.53
2017-05-10T08:37:29.266Z,65.10
2017-05-10T08:39:56.251Z,64.66
2017-05-10T08:42:23.226Z,64.44
2017-05-10T08:44:50.338Z,64.06
2017-05-10T08:47:17.320Z,63.00
2017-05-10T08:49:44.273Z,62.89
2017-05-10T08:52:12.189Z,63.48
2017-05-10T08:54:39.174Z,64.57
2017-05-10T08:57:06.146Z,64.56
2017-05-10T08:59:33.124Z,63.79
2017-05-10T09:02:00.093Z,62.44
2017-05-10T09:04:27.041Z,62.71
2017-05-10T09:06:53.989Z,62.46
2017-05-10T09:09:20.970Z,62.33
2017-05-10T09:11:47.921Z,61.84
2017-05-10T09:14:14.861Z,62.16
2017-05-10T09:16:41.816Z,61.87
2017-05-10T09:19:08.770Z,61.82
2017-05-10T09:21:35.741Z,61.41
2017-05-10T09:24:02.690Z,59.18
2017-05-10T09:26:29.645Z,58.93
2017-05-10T09:28:56.606Z,58.43
2017-05-10T09:31:23.557Z,57.47
2017-05-10T09:33:50.525Z,55.04
2017-05-10T09:36:17.477Z,53.65
2017-05-10T09:38:44.417Z,53.35
2017-05-10T09:41:11.389Z,51.19
2017-05-10T09:43:38.338Z,49.22
2017-05-10T09:46:05.311Z,46.63
2017-05-10T09:48:32.257Z,45.72
2017-05-10T09:50:59.210Z,46.18
2017-05-10T09:53:26.173Z,44.04
2017-05-10T09:55:53.120Z,43.95
2017-05-10T09:58:20.097Z,43.34
2017-05-10T10:00:47.042Z,39.20
2017-05-10T10:03:16.977Z,39.95
2017-05-10T10:05:43.951Z,40.45
2017-05-10T10:08:10.925Z,39.64
2017-05-10T10:10:37.898Z,40.07
2017-05-10T10:13:04.837Z,39.91
2017-05-10T10:15:31.784Z,39.69
2017-05-10T10:17:58.749Z,41.20
2017-05-10T10:20:25.693Z,41.14
2017-05-10T10:22:52.672Z,41.42
2017-05-10T10:25:19.625Z,41.70
2017-05-10T10:27:46.580Z,41.46
2017-05-10T10:30:13.539Z,40.54
2017-05-10T10:32:40.505Z,39.49
2017-05-10T10:35:07.479Z,38.93
2017-05-10T10:37:34.439Z,37.92
2017-05-10T10:40:01.390Z,38.41
2017-05-10T10:42:28.362Z,38.30
2017-05-10T10:44:55.318Z,38.71
2017-05-10T10:47:22.306Z,38.00
2017-05-10T10:49:49.257Z,38.58
2017-05-10T10:52:16.199Z,39.07
2017-05-10T10:54:43.149Z,39.72
2017-05-10T10:57:10.101Z,39.06
2017-05-10T10:59:38.981Z,38.09
2017-05-10T11:02:05.929Z,38.74
2017-05-10T11:04:32.872Z,38.42
2017-05-10T11:06:59.837Z,38.45
2017-05-10T11:09:26.777Z,37.85
2017-05-10T11:11:53.744Z,37.79
2017-05-10T11:14:20.689Z,36.97
2017-05-10T11:16:47.633Z,37.33
2017-05-10T11:19:14.589Z,37.90
2017-05-10T11:21:41.536Z,38.39
2017-05-10T11:24:08.503Z,37.64
2017-05-10T11:26:35.446Z,38.26
2017-05-10T11:29:02.389Z,36.97
2017-05-10T11:31:29.352Z,37.27
2017-05-10T11:33:56.298Z,36.10
2017-05-10T11:36:23.297Z,35.78
2017-05-10T11:38:50.241Z,35.18
2017-05-10T11:41:17.186Z,35.37
2017-05-10T11:43:44.144Z,35.19
2017-05-10T11:46:11.085Z,34.45
2017-05-10T11:48:38.045Z,33.98
2017-05-10T11:51:04.989Z,33.82
2017-05-10T11:53:31.925Z,33.87
2017-05-10T11:55:58.902Z,33.40
2017-05-10T11:58:25.850Z,34.21
2017-05-10T12:00:52.830Z,34.48
2017-05-10T12:03:19.785Z,33.93
2017-05-10T12:05:46.721Z,33.33
2017-05-10T12:08:13.681Z,32.93
2017-05-10T12:10:46.858Z,33.69
2017-05-10T12:13:13.822Z,33.30
2017-05-10T12:15:40.763Z,33.39
2017-05-10T12:18:07.710Z,34.67
2017-05-10T12:20:34.673Z,34.93
2017-05-10T12:23:01.631Z,34.53
2017-05-10T12:25:28.590Z,33.97
2017-05-10T12:27:55.539Z,33.02
2017-05-10T12:30:22.481Z,32.84
2017-05-10T12:32:49.466Z,33.46
2017-05-10T12:35:16.409Z,33.67
2017-05-10T12:37:43.362Z,34.00
2017-05-10T12:40:10.309Z,34.29
2017-05-10T12:42:37.257Z,33.50
2017-05-10T12:45:04.209Z,32.74
2017-05-10T12:47:31.162Z,33.26
2017-05-10T12:49:58.117Z,32.13
2017-05-10T12:52:25.053Z,32.70
2017-05-10T12:54:51.994Z,33.83
2017-05-10T12:57:18.962Z,33.72
2017-05-10T12:59:45.913Z,32.65
2017-05-10T13:02:12.884Z,32.13
2017-05-10T13:04:39.862Z,32.79
2017-05-10T13:07:06.802Z,32.64
2017-05-10T13:09:33.822Z,32.80
2017-05-10T13:12:00.766Z,32.56
2017-05-10T13:14:27.709Z,32.94
2017-05-10T13:16:54.668Z,33.50
2017-05-10T13:19:21.625Z,32.78
2017-05-10T13:21:48.577Z,32.35
2017-05-10T13:24:15.558Z,30.36
2017-05-10T13:26:42.556Z,31.37
2017-05-10T13:29:09.533Z,31.57
2017-05-10T13:31:50.899Z,31.54
2017-05-10T13:34:17.861Z,32.30
2017-05-10T13:36:44.802Z,32.73
2017-05-10T13:39:11.978Z,33.86
2017-05-10T13:41:38.969Z,33.72
2017-05-10T13:44:05.929Z,33.92
2017-05-10T13:46:32.886Z,33.42
2017-05-10T13:49:01.810Z,31.59
2017-05-10T13:51:28.814Z,32.98
2017-05-10T13:53:55.769Z,32.63
2017-05-10T13:56:22.741Z,32.36
2017-05-10T13:58:49.685Z,33.01
2017-05-10T14:01:16.649Z,31.78
2017-05-10T14:03:43.605Z,32.21
2017-05-10T14:06:10.588Z,32.50
2017-05-10T14:08:37.547Z,32.65
2017-05-10T14:11:04.495Z,32.01
2017-05-10T14:13:31.473Z,31.70
2017-05-10T14:15:58.417Z,31.91
2017-05-10T14:18:25.361Z,32.12
2017-05-10T14:20:52.511Z,32.79
2017-05-10T14:23:19.489Z,32.34
2017-05-10T14:25:46.467Z,31.83
2017-05-10T14:28:13.413Z,32.11
2017-05-10T14:33:26.175Z,30.29
2017-05-10T14:35:53.150Z,30.95
2017-05-10T14:38:20.089Z,31.67
2017-05-10T14:40:47.040Z,31.50
2017-05-10T14:43:14.005Z,30.88
2017-05-10T14:45:40.971Z,31.08
2017-05-10T14:48:08.017Z,31.69
2017-05-10T14:50:34.969Z,31.69
2017-05-10T14:53:01.914Z,30.93
2017-05-10T14:55:29.801Z,31.39
2017-05-10T14:57:56.741Z,31.20
2017-05-10T15:00:23.701Z,30.51
2017-05-10T15:02:50.653Z,30.75
2017-05-10T15:05:17.597Z,30.33
2017-05-10T15:10:30.708Z,30.88
2017-05-10T15:12:57.685Z,30.54
2017-05-10T15:15:24.635Z,30.83
2017-05-10T15:17:51.568Z,30.98
2017-05-10T15:20:18.594Z,31.18
2017-05-10T15:25:25.006Z,31.21
2017-05-10T15:27:52.103Z,30.66
2017-05-10T15:30:20.201Z,31.35
2017-05-10T15:32:47.170Z,31.77
2017-05-10T15:35:14.125Z,31.97
2017-05-10T15:37:41.089Z,32.71
2017-05-10T15:40:08.093Z,33.11
2017-05-10T15:42:47.797Z,33.20
2017-05-10T15:45:14.745Z,33.70
2017-05-10T15:47:41.692Z,33.80
2017-05-10T15:50:08.681Z,33.34
2017-05-10T15:52:35.617Z,33.32
2017-05-10T15:55:02.580Z,32.85
2017-05-10T15:57:29.521Z,31.41
2017-05-10T15:59:56.466Z,31.42
2017-05-10T16:02:30.074Z,31.79
2017-05-10T16:04:57.017Z,32.08
2017-05-10T16:07:23.989Z,32.23
2017-05-10T16:09:50.933Z,33.52
2017-05-10T16:12:17.876Z,34.38
2017-05-10T16:14:44.829Z,35.30
2017-05-10T16:17:11.770Z,34.41
2017-05-10T16:19:38.735Z,34.45
2017-05-10T16:22:05.686Z,33.38
2017-05-10T16:24:32.631Z,33.65
2017-05-10T16:27:07.221Z,35.01
2017-05-10T16:29:34.348Z,36.35
2017-05-10T16:32:01.550Z,37.29
2017-05-10T16:34:29.554Z,36.51
2017-05-10T16:36:56.606Z,35.94
2017-05-10T16:39:23.575Z,36.13
2017-05-10T16:41:50.558Z,36.32
2017-05-10T16:44:17.619Z,35.96
2017-05-10T16:46:44.558Z,36.01
2017-05-10T16:49:11.501Z,35.09
2017-05-10T16:51:38.458Z,35.22
2017-05-10T16:54:05.537Z,35.30
2017-05-10T16:56:32.505Z,35.56
2017-05-10T16:58:59.445Z,36.12
2017-05-10T17:01:26.386Z,35.37
2017-05-10T17:03:58.177Z,35.88
2017-05-10T17:06:25.121Z,36.07
2017-05-10T17:08:52.091Z,35.37
2017-05-10T17:11:19.051Z,35.36
2017-05-10T17:13:46.040Z,36.02
2017-05-10T17:16:13.113Z,36.88
2017-05-10T17:18:41.205Z,37.07
2017-05-10T17:21:08.507Z,36.93
2017-05-10T17:23:35.797Z,37.76
2017-05-10T17:26:03.055Z,38.79
2017-05-10T17:28:30.351Z,38.63
2017-05-10T17:30:57.654Z,39.46
2017-05-10T17:33:26.941Z,39.93
2017-05-10T17:35:54.202Z,40.40
2017-05-10T17:38:21.473Z,40.73
2017-05-10T17:40:48.793Z,40.96
2017-05-10T17:43:16.086Z,40.23
2017-05-10T17:45:43.419Z,40.71
2017-05-10T17:48:20.662Z,41.44
2017-05-10T17:50:48.000Z,42.17
2017-05-10T17:53:15.298Z,42.45
2017-05-10T17:55:42.549Z,42.48
2017-05-10T17:58:09.881Z,43.12
2017-05-10T18:00:37.160Z,43.62
2017-05-10T18:03:04.505Z,44.19
2017-05-10T18:05:31.776Z,44.27
2017-05-10T18:07:59.057Z,44.56
2017-05-10T18:10:26.365Z,44.97
2017-05-10T18:12:53.668Z,45.01
2017-05-10T18:15:21.000Z,45.33
2017-05-10T18:17:48.645Z,45.60
2017-05-10T18:20:15.918Z,45.73
2017-05-10T18:22:43.205Z,46.11
2017-05-10T18:25:12.477Z,46.41
2017-05-10T18:27:40.619Z,47.28
2017-05-10T18:30:07.904Z,47.71
2017-05-10T18:32:35.180Z,47.81
2017-05-10T18:35:02.448Z,47.81
2017-05-10T18:37:30.791Z,48.12
2017-05-10T18:39:58.147Z,48.31
2017-05-10T18:42:25.433Z,48.70
2017-05-10T18:44:52.955Z,49.09
2017-05-10T18:47:20.263Z,49.85
2017-05-10T18:49:47.541Z,50.30
2017-05-10T18:52:14.920Z,50.62
2017-05-10T18:54:42.204Z,50.73
2017-05-10T18:57:09.477Z,51.08
2017-05-10T18:59:36.756Z,51.28
2017-05-10T19:02:04.034Z,51.89
2017-05-10T19:04:31.377Z,52.30
2017-05-10T19:06:58.677Z,52.41
2017-05-10T19:09:25.954Z,52.84
2017-05-10T19:11:54.191Z,53.22
2017-05-10T19:14:21.186Z,53.46
2017-05-10T19:16:48.150Z,54.09
2017-05-10T19:19:15.094Z,54.36
2017-05-10T19:21:42.038Z,54.45
2017-05-10T19:24:09.004Z,54.83
2017-05-10T19:26:35.953Z,55.08
2017-05-10T19:29:02.953Z,55.36
2017-05-10T19:31:29.919Z,55.66
2017-05-10T19:33:58.219Z,56.06
2017-05-10T19:36:25.198Z,56.22
2017-05-10T19:38:52.145Z,56.59
2017-05-10T19:41:21.065Z,57.13
2017-05-10T19:43:48.018Z,57.32
2017-05-10T19:46:15.014Z,57.63
2017-05-10T19:48:42.042Z,58.22
2017-05-10T19:51:09.110Z,58.24
2017-05-10T19:53:37.562Z,58.61
2017-05-10T19:56:04.521Z,58.91
2017-05-10T19:58:34.687Z,59.54
2017-05-10T20:01:01.653Z,59.91
2017-05-10T20:03:28.625Z,60.36
2017-05-10T20:05:55.629Z,60.69
2017-05-10T20:08:22.585Z,60.71
2017-05-10T20:10:49.537Z,61.24
2017-05-10T20:13:16.517Z,61.43
2017-05-10T20:15:44.360Z,61.61
2017-05-10T20:18:30.095Z,61.52
2017-05-10T20:20:57.053Z,62.02
2017-05-10T20:23:24.084Z,62.14
2017-05-10T20:25:51.064Z,62.22
2017-05-10T20:28:18.043Z,62.68
2017-05-10T20:30:45.037Z,62.76
2017-05-10T20:33:11.993Z,63.14
2017-05-10T20:35:38.989Z,63.26
2017-05-10T20:38:05.949Z,63.51
2017-05-10T20:40:32.934Z,63.36
2017-05-10T20:48:36.703Z,64.46
2017-05-10T20:51:03.691Z,64.91
2017-05-10T20:53:30.653Z,65.09
2017-05-10T20:55:57.641Z,65.34
2017-05-10T20:58:24.671Z,65.64
2017-05-10T21:00:51.653Z,66.09
2017-05-10T21:03:18.602Z,66.43
2017-05-10T21:05:45.614Z,66.73
2017-05-10T21:08:12.690Z,66.93
2017-05-10T21:10:39.714Z,67.30
2017-05-10T21:13:06.719Z,67.47
2017-05-10T21:15:33.714Z,67.51
2017-05-10T21:18:00.702Z,67.75
2017-05-10T21:20:27.714Z,67.62
2017-05-10T21:22:54.768Z,67.45
2017-05-10T21:25:21.774Z,68.08
2017-05-10T21:27:48.746Z,68.12
2017-05-10T21:30:15.738Z,68.33
2017-05-10T21:32:42.766Z,68.50
2017-05-10T21:35:09.757Z,68.51
2017-05-10T21:37:36.760Z,68.81
2017-05-10T21:40:03.802Z,69.15
2017-05-10T21:42:30.760Z,69.53
2017-05-10T21:44:57.795Z,69.81
2017-05-10T21:47:24.806Z,69.77
2017-05-10T21:49:51.851Z,69.76
2017-05-10T21:52:18.822Z,70.51
2017-05-10T21:54:45.854Z,70.33
2017-05-10T21:57:12.835Z,70.72
2017-05-10T21:59:39.810Z,70.79
2017-05-10T22:02:06.781Z,71.27
2017-05-10T22:04:33.741Z,71.60
2017-05-10T22:07:00.701Z,71.54
2017-05-10T22:09:27.677Z,71.71
2017-05-10T22:11:54.637Z,71.98
2017-05-10T22:14:21.618Z,72.31
2017-05-10T22:16:48.565Z,72.38
2017-05-10T22:19:15.539Z,72.24
2017-05-10T22:21:42.552Z,72.39
2017-05-10T22:24:09.525Z,72.66
2017-05-10T22:26:36.506Z,72.74
2017-05-10T22:29:03.505Z,72.73
2017-05-10T22:31:30.462Z,72.75
2017-05-10T22:33:57.464Z,73.05
2017-05-10T22:36:24.441Z,73.03
2017-05-10T22:38:51.414Z,73.18
2017-05-10T22:41:18.450Z,73.29
2017-05-10T22:43:45.464Z,73.45
2017-05-10T22:46:12.421Z,73.66
2017-05-10T22:48:39.408Z,73.73
2017-05-10T22:51:06.405Z,74.03
2017-05-10T22:53:33.402Z,74.05
2017-05-10T22:56:00.382Z,74.27
2017-05-10T22:58:27.360Z,74.32
2017-05-10T23:00:54.337Z,74.14
2017-05-10T23:03:21.346Z,74.55
2017-05-10T23:05:48.317Z,74.79
2017-05-10T23:08:15.285Z,74.60
2017-05-10T23:10:42.275Z,74.88
2017-05-10T23:13:09.240Z,75.10
2017-05-10T23:15:37.901Z,75.03
2017-05-10T23:18:04.921Z,75.20
2017-05-10T23:20:31.881Z,75.23
2017-05-10T23:22:58.850Z,75.39
2017-05-10T23:25:25.826Z,75.55
2017-05-10T23:27:52.805Z,75.65
2017-05-10T23:30:19.781Z,75.52
2017-05-10T23:32:46.741Z,75.26
2017-05-10T23:35:13.685Z,76.01
2017-05-10T23:37:40.661Z,76.09
2017-05-10T23:40:07.671Z,76.22
2017-05-10T23:42:34.642Z,76.39
2017-05-10T23:45:01.589Z,76.46
2017-05-10T23:47:28.546Z,76.57
2017-05-10T23:49:55.517Z,76.64
2017-05-10T23:52:22.485Z,76.87
2017-05-10T23:54:49.510Z,76.62
2017-05-10T23:57:16.537Z,76.45
2017-05-10T23:59:43.500Z,76.95
